Details From HDAM - DJIBOUTI AMBOULI
To FMMI - IVATO
Flight Number -
Tags generated
Created
Modified
Stats Distance 1,855 nm / 3,436 km
Max Altitude 35,000 ft / 10,668 m
Waypoints 19
Social Downloads 1
Likes 0
Share

Download

Looking for another format? Having issues loading an existing format? Contact us
Advertisement - Login to hide

Notes

Basic altitude profile: - Ascent Rate: 2500ft/min - Ascent Speed: 250kts - Cruise Altitude: 30000ft - Cruise Speed: 300kts - Descent Rate: 1500ft/min - Descent Speed: 250kts Options: - Use NATs: yes - Use PACOTS: yes - Use low airways: yes - Use high airways: yes

Route

HDAM LUBAR UR775G ALNAB R775 SOLUL UR775G UNPAR UR775 MG UA401 DIRBA FMMI

ID Type Via Altitude (ft/m) Position (lat/lon) Dist (leg/tot) Name
O HDAM APT - 0 / 0 11.54733 / 43.15948 - / 0 nm DJIBOUTI AMBOULI
LUBAR FIX - 23,200 / 7,071 10.55197 / 43.60067 65 / 65 nm
HARGA FIX UR775G (AWY-HI) 35,000 / 10,668 9.52000 / 44.09167 68 / 133 nm
ALNAB FIX UR775G (AWY-HI) 35,000 / 10,668 8.91833 / 44.21667 36 / 170 nm
GABDA FIX R775 (AWY-HI) 35,000 / 10,668 6.85231 / 44.70069 127 / 297 nm
SOLUL FIX R775 (AWY-HI) 35,000 / 10,668 5.08578 / 45.13400 109 / 407 nm
BELEN FIX UR775G (AWY-HI) 35,000 / 10,668 4.73664 / 45.18158 21 / 428 nm
MOGDU FIX UR775G (AWY-HI) 35,000 / 10,668 2.00667 / 45.29333 164 / 592 nm
UNPAR FIX UR775G (AWY-HI) 35,000 / 10,668 -0.82333 / 45.45833 170 / 762 nm
MITCH FIX UR775 (AWY-HI) 35,000 / 10,668 -2.00000 / 45.52667 70 / 833 nm
SOKAR FIX UR775 (AWY-HI) 35,000 / 10,668 -6.00000 / 45.76000 240 / 1074 nm
BERIL FIX UR775 (AWY-HI) 35,000 / 10,668 -10.00000 / 45.99500 240 / 1314 nm
MAROF FIX UR775 (AWY-HI) 35,000 / 10,668 -12.30944 / 46.13333 138 / 1453 nm
SOAVI FIX UR775 (AWY-HI) 35,000 / 10,668 -13.59333 / 46.21194 77 / 1530 nm
TIKAN FIX UR775 (AWY-HI) 35,000 / 10,668 -14.65833 / 46.27806 64 / 1594 nm
MG VOR UR775 (AWY-HI) 35,000 / 10,668 -15.65750 / 46.34067 60 / 1655 nm PHILIBERT TSIRANANA VOR-DME
UVGAD FIX UA401 (AWY-HI) 31,100 / 9,479 -16.46306 / 46.57250 50 / 1705 nm
DIRBA FIX UA401 (AWY-HI) 23,500 / 7,163 -17.93000 / 47.00000 91 / 1796 nm
O FMMI APT - 0 / 0 -18.79695 / 47.47881 58 / 1855 nm IVATO

Altitude Profile

Advertisement - Login to hide

Weather


0- 5 10 15 20 25 30 35+ Temperature / °C

Clouds and Precipitation
Forecast for 2021-03-22 12:00 UTC. Updated a month ago

Ground ~20,000 ft ~40,000 ft Winds

HDAM

Details ICAO HDAM (JIB)
Name Djibouti Ambouli
Region Djibouti
Timezone Africa/Djibouti (UTC+3.0)
Stats Elevation 48 ft / 15 m (AMSL)
Location 11.547300° 43.159500°
Runways 1
Magnetic Variation 2.035° E

METAR

Not found

TAF

TAF HDAM 070500Z 0706/0806 03010KT 9999 SCT023 SCT133 BECMG 0715/0721 VRB05KT SKC BECMG 0800/0806 00000KT FEW020 FEW133

Decode

Departure Runways

ID Width Length Bearing (true/mag) Surface Threshold Overrun Markings Lighting
09 150 ft / 46 m 10,312 ft / 3,143 m 90.84° / 88.81° ASPHALT 0 ft / 0 m 600 ft / 183 m APP EDGE THRESHOLD
27 150 ft / 46 m 10,312 ft / 3,143 m 270.85° / 268.82° ASPHALT 712 ft / 217 m 581 ft / 177 m PREC-APP EDGE THRESHOLD

FMMI

Details ICAO FMMI (TNR)
Name Antananarivo Ivato Intl
Region Comoros, Mayotte, Réunion and Madagascar
Timezone Indian/Antananarivo (UTC+3.0)
Stats Elevation 4,198 ft / 1,280 m (AMSL)
Location -18.796900° 47.478800°
Runways 1
Magnetic Variation 15.254° W

METAR

FMMI 070730Z 04006KT 330V080 9999 BKN020 24/15 Q1020 NOSIG

Decode

TAF

TAF FMMI 070500Z 0706/0812 VRB05KT 9999 FEW017 BKN020= TAF FMEE 070500Z 0706/0812 36007KT 9999 FEW026 SCT046 TEMPO 0708/0710 27008KT BECMG 0711/0712 12015KT BECMG 0714/0715 17006KT BECMG 0804/0806 06006KT

Decode

Destination Runways

ID Width Length Bearing (true/mag) Surface Threshold Overrun Markings Lighting
11 148 ft / 45 m 10,157 ft / 3,096 m 98.96° / 114.22° ASPHALT 0 ft / 0 m 194 ft / 59 m PREC-APP EDGE THRESHOLD ALSF-I REIL-OMNI
29 148 ft / 45 m 10,157 ft / 3,096 m 278.95° / 294.21° ASPHALT 0 ft / 0 m 200 ft / 61 m PREC-APP EDGE THRESHOLD REIL-OMNI

Approach Navaids

Runway Type Ident Frequency Range Bearing (true/mag) Slope Elevation
11 GS IO 109.50 MHz 10 nm / 19 km 99.82° / 115.08 ° 3.00° 4,198 ft / 1,280 m (AMSL)
11 OM OM - - 98.91° / 114.17 ° - 4,198 ft / 1,280 m (AMSL)
11 MM MM - - 98.91° / 114.17 ° - 4,198 ft / 1,280 m (AMSL)
11 LOC-ILS IO 109.50 MHz 18 nm / 33 km 98.89° / 114.14 ° - 4,125 ft / 1,257 m (AMSL)

Popular Alternatives